Time;durP1;ratioP1;P1;durP2;ratioP2;P2;SDS_P1;SDS_P2;PMS_P1;PMS_P2;Temp;Humidity;BMP_temperature;BMP_pressure;BME280_temperature;BME280_humidity;BME280_pressure;Samples;Min_cycle;Max_cycle;Signal;HPM_P1;HPM_P2
2022/12/20 00:03:02;;;;;;;4.30;3.75;;;;;;;9.41;100.00;101181.28;10378401;28;20041;-69
2022/12/20 00:08:03;;;;;;;3.78;3.47;;;;;;;9.47;100.00;101177.81;10378332;28;20045;-68
2022/12/20 00:13:03;;;;;;;2.67;2.47;;;;;;;9.49;100.00;101175.78;10393382;28;20466;-68
2022/12/20 00:18:04;;;;;;;7.55;4.45;;;;;;;9.39;100.00;101180.59;10397054;28;20528;-69
2022/12/20 00:23:04;;;;;;;5.70;3.60;;;;;;;9.35;100.00;101189.25;10378474;28;20111;-69
2022/12/20 00:28:04;;;;;;;5.75;3.17;;;;;;;9.36;100.00;101175.56;10378054;28;20466;-69
2022/12/20 00:33:05;;;;;;;3.20;2.90;;;;;;;9.34;100.00;101172.19;10377874;28;20045;-68
2022/12/20 00:38:05;;;;;;;6.30;3.25;;;;;;;9.34;100.00;101163.25;10377074;28;20037;-67
2022/12/20 00:43:05;;;;;;;3.65;3.33;;;;;;;9.26;100.00;101153.38;10376082;28;20081;-67
2022/12/20 00:48:06;;;;;;;3.72;3.42;;;;;;;9.18;100.00;101153.44;10376091;28;20026;-68
2022/12/20 00:53:08;;;;;;;5.97;3.65;;;;;;;9.09;100.00;101139.13;10376553;28;20497;-66
2022/12/20 00:58:09;;;;;;;4.75;4.10;;;;;;;9.14;100.00;101119.69;10375792;28;20157;-67
2022/12/20 01:03:09;;;;;;;11.43;5.38;;;;;;;9.19;100.00;101123.53;10376224;28;20492;-67
2022/12/20 01:08:10;;;;;;;4.88;2.97;;;;;;;9.28;100.00;101113.47;10391428;28;20110;-68
2022/12/20 01:13:10;;;;;;;5.22;3.60;;;;;;;9.27;100.00;101114.50;10376526;28;20108;-67
2022/12/20 01:18:10;;;;;;;8.70;4.70;;;;;;;9.44;100.00;101116.00;10376144;28;20038;-68
2022/12/20 01:23:11;;;;;;;10.80;3.85;;;;;;;9.39;100.00;101112.19;10376399;28;20458;-68
2022/12/20 01:28:11;;;;;;;6.75;4.65;;;;;;;9.45;100.00;101085.28;10374682;28;20034;-68
2022/12/20 01:33:11;;;;;;;7.18;4.20;;;;;;;9.46;100.00;101084.25;10374025;28;20092;-68
2022/12/20 01:38:12;;;;;;;7.10;3.60;;;;;;;9.43;100.00;101075.66;10407188;28;20033;-67
2022/12/20 01:43:13;;;;;;;7.97;3.88;;;;;;;9.55;100.00;101076.88;10391208;28;20066;-68
2022/12/20 01:48:15;;;;;;;3.30;3.05;;;;;;;9.45;100.00;101089.84;10390227;28;20053;-68
2022/12/20 01:53:15;;;;;;;5.47;3.42;;;;;;;9.48;100.00;101079.50;10374204;28;20022;-68
2022/12/20 01:58:16;;;;;;;10.52;4.65;;;;;;;9.48;100.00;101084.91;10373594;28;20033;-67
2022/12/20 02:03:16;;;;;;;3.65;3.08;;;;;;;9.55;100.00;101093.09;10389687;28;20038;-68
2022/12/20 02:08:18;;;;;;;4.05;3.67;;;;;;;9.49;100.00;101100.09;10406683;28;20030;-68
2022/12/20 02:13:44;;;;;;;4.38;3.80;;;;;;;9.49;100.00;101089.28;10372777;28;20038;-68
2022/12/20 02:19:02;;;;;;;14.00;4.17;;;;;;;9.54;100.00;101097.69;10364463;28;20120;-67
2022/12/20 02:24:41;;;;;;;12.55;3.72;;;;;;;9.48;100.00;101078.66;10387166;28;20030;-68
2022/12/20 02:29:57;;;;;;;3.70;3.47;;;;;;;9.52;100.00;101080.78;10374533;28;20042;-68
2022/12/20 02:34:57;;;;;;;4.93;3.65;;;;;;;9.48;100.00;101079.50;10405444;28;20034;-68
2022/12/20 02:39:58;;;;;;;7.25;4.35;;;;;;;9.61;100.00;101078.00;10393638;28;20061;-69
2022/12/20 02:45:18;;;;;;;6.75;3.35;;;;;;;9.58;100.00;101068.41;10382244;28;20084;-67
2022/12/20 02:50:39;;;;;;;4.45;3.95;;;;;;;9.67;100.00;101071.84;10380568;28;20425;-68
2022/12/20 02:56:11;;;;;;;6.15;5.00;;;;;;;9.76;100.00;101049.06;10382499;28;20378;-68
2022/12/20 03:01:16;;;;;;;3.45;3.13;;;;;;;9.69;100.00;101035.47;10381522;28;20030;-68
2022/12/20 03:06:16;;;;;;;3.08;2.70;;;;;;;9.68;100.00;101046.47;10394986;28;20041;-68
2022/12/20 03:11:17;;;;;;;8.98;3.50;;;;;;;9.83;100.00;101044.59;10384012;28;20034;-69
2022/12/20 03:16:17;;;;;;;10.02;3.63;;;;;;;9.84;100.00;101045.44;10379708;28;20026;-68
2022/12/20 03:21:17;;;;;;;3.97;3.53;;;;;;;9.88;100.00;101052.13;10378819;28;20033;-69
2022/12/20 03:26:18;;;;;;;5.82;3.65;;;;;;;9.84;100.00;101043.56;10378815;28;20417;-68
2022/12/20 03:31:18;;;;;;;3.40;3.10;;;;;;;9.82;100.00;101037.50;10378240;28;20100;-69
2022/12/20 03:36:22;;;;;;;6.38;3.65;;;;;;;9.84;100.00;101032.75;10411520;28;20045;-68
2022/12/20 03:41:22;;;;;;;12.75;3.70;;;;;;;9.95;100.00;101037.66;10379953;28;20054;-69
2022/12/20 03:46:23;;;;;;;4.78;3.25;;;;;;;9.97;100.00;101038.31;10379185;28;20049;-68
2022/12/20 03:51:23;;;;;;;4.07;3.03;;;;;;;9.99;100.00;101032.72;10378772;28;20038;-68
2022/12/20 03:56:24;;;;;;;4.25;3.85;;;;;;;10.00;100.00;101039.81;10394058;28;20076;-68
2022/12/20 04:01:26;;;;;;;7.25;4.47;;;;;;;10.05;100.00;101053.63;10378859;28;20141;-68
2022/12/20 04:06:26;;;;;;;4.97;3.60;;;;;;;9.80;100.00;101050.38;10378407;28;20034;-68
2022/12/20 04:11:26;;;;;;;4.80;4.30;;;;;;;9.71;100.00;101035.28;10378115;28;20048;-68
2022/12/20 04:16:28;;;;;;;8.45;4.85;;;;;;;9.66;100.00;101025.03;10378416;28;20096;-68
2022/12/20 04:21:30;;;;;;;4.57;3.50;;;;;;;9.63;100.00;101038.09;10377839;28;20071;-69
2022/12/20 04:26:30;;;;;;;7.30;3.38;;;;;;;9.60;100.00;101033.88;10377728;28;20041;-68
2022/12/20 04:31:31;;;;;;;4.18;3.72;;;;;;;9.65;100.00;101033.34;10378242;28;20033;-69
2022/12/20 04:36:31;;;;;;;5.50;4.90;;;;;;;9.59;100.00;101007.06;10378026;28;20038;-69
2022/12/20 04:41:32;;;;;;;5.13;4.65;;;;;;;9.60;100.00;100993.31;10377205;28;20050;-69
2022/12/20 04:46:32;;;;;;;9.73;4.13;;;;;;;9.63;100.00;100984.00;10377163;28;20501;-69
2022/12/20 04:51:32;;;;;;;4.70;4.30;;;;;;;9.75;100.00;101004.97;10379377;28;20061;-69
2022/12/20 04:56:33;;;;;;;5.90;4.75;;;;;;;9.82;100.00;100982.56;10380804;28;20045;-68
2022/12/20 05:01:33;;;;;;;4.30;3.85;;;;;;;9.87;100.00;100980.16;10396227;28;20046;-69
2022/12/20 05:06:34;;;;;;;5.13;4.63;;;;;;;9.95;100.00;100980.00;10379491;28;20029;-68
2022/12/20 05:11:34;;;;;;;3.72;3.17;;;;;;;10.03;100.00;100969.09;10380438;28;20041;-69
2022/12/20 05:16:36;;;;;;;7.72;5.55;;;;;;;10.06;100.00;100968.69;10390576;28;20033;-68
2022/12/20 05:26:55;;;;;;;9.15;4.47;;;;;;;10.13;100.00;100953.34;10375114;28;20038;-69
2022/12/20 05:31:55;;;;;;;2.95;2.70;;;;;;;10.11;100.00;100938.34;10375155;28;20065;-69
2022/12/20 05:36:56;;;;;;;13.48;4.95;;;;;;;10.09;100.00;100945.84;10311076;28;20042;-70
2022/12/20 05:41:56;;;;;;;2.42;2.22;;;;;;;10.06;100.00;100940.81;10376153;28;20061;-69
2022/12/20 05:46:57;;;;;;;3.40;3.17;;;;;;;10.16;100.00;100941.31;10375393;28;20065;-69
2022/12/20 05:51:57;;;;;;;4.03;3.63;;;;;;;10.22;100.00;100927.00;10373051;28;20485;-70
2022/12/20 05:56:57;;;;;;;5.55;3.22;;;;;;;10.34;100.00;100919.22;10373944;28;20026;-71
2022/12/20 06:01:58;;;;;;;2.92;2.72;;;;;;;10.42;100.00;100936.16;10374761;28;20105;-69
2022/12/20 06:06:58;;;;;;;9.77;4.30;;;;;;;10.60;100.00;100940.28;10376249;28;20382;-68
2022/12/20 06:12:00;;;;;;;5.63;4.07;;;;;;;10.65;100.00;100929.66;10374036;28;20398;-69
2022/12/20 06:17:00;;;;;;;2.33;2.22;;;;;;;10.65;100.00;100945.91;10398226;28;20034;-69
2022/12/20 06:22:01;;;;;;;5.13;3.47;;;;;;;10.66;100.00;100934.06;10382485;28;20112;-69
2022/12/20 06:27:01;;;;;;;4.38;2.28;;;;;;;10.69;100.00;100937.22;10382268;28;20084;-68
2022/12/20 06:32:04;;;;;;;4.40;2.67;;;;;;;10.67;100.00;100950.09;10381851;28;20304;-69
2022/12/20 06:37:04;;;;;;;4.25;3.05;;;;;;;10.77;100.00;100943.50;10397400;28;20366;-69
2022/12/20 06:42:05;;;;;;;4.35;2.97;;;;;;;10.69;100.00;100923.69;10381583;28;20050;-68
2022/12/20 06:47:06;;;;;;;3.08;2.88;;;;;;;10.71;100.00;100918.03;10396664;28;20439;-68
2022/12/20 06:52:06;;;;;;;4.82;3.03;;;;;;;10.73;100.00;100934.13;10379935;28;20225;-69
2022/12/20 06:57:07;;;;;;;10.25;2.92;;;;;;;10.70;100.00;100932.63;10380303;28;20034;-69
2022/12/20 07:02:11;;;;;;;5.30;3.58;;;;;;;10.77;100.00;100933.50;10380884;28;20037;-68
2022/12/20 07:07:12;;;;;;;4.13;2.72;;;;;;;10.83;100.00;100942.72;10394891;28;20041;-68
2022/12/20 07:12:12;;;;;;;3.97;3.53;;;;;;;10.77;100.00;100943.50;10381163;28;20112;-69
2022/12/20 07:17:13;;;;;;;3.10;2.83;;;;;;;10.81;100.00;100940.19;10379093;28;20042;-68
2022/12/20 07:22:13;;;;;;;4.60;2.20;;;;;;;10.73;100.00;100939.53;10379846;28;20621;-68
2022/12/20 07:27:14;;;;;;;3.55;3.05;;;;;;;10.45;100.00;100930.34;10378924;28;20034;-69
2022/12/20 07:32:14;;;;;;;3.50;3.20;;;;;;;10.22;100.00;100940.53;10379339;28;20034;-68
2022/12/20 07:37:15;;;;;;;4.78;2.47;;;;;;;10.12;100.00;100937.34;10395624;28;20032;-68
2022/12/20 07:42:15;;;;;;;2.55;2.22;;;;;;;10.02;100.00;100935.78;10379030;28;20394;-67
2022/12/20 07:47:15;;;;;;;8.82;3.22;;;;;;;9.97;100.00;100932.81;10379264;28;20359;-68
2022/12/20 07:52:16;;;;;;;5.75;2.45;;;;;;;9.89;100.00;100945.59;10379313;28;20045;-68
2022/12/20 07:57:26;;;;;;;4.03;2.50;;;;;;;9.77;100.00;100950.69;10377219;28;20105;-67
2022/12/20 08:02:48;;;;;;;5.82;3.92;;;;;;;9.63;100.00;100944.28;10393742;28;20056;-67
2022/12/20 08:07:48;;;;;;;6.38;3.65;;;;;;;9.60;100.00;100943.84;10390271;28;20052;-67
2022/12/20 08:12:49;;;;;;;6.00;2.60;;;;;;;9.60;100.00;100935.72;10393987;28;20042;-67
2022/12/20 08:17:49;;;;;;;18.02;3.50;;;;;;;9.61;100.00;100953.63;10376659;28;20108;-67
2022/12/20 08:22:50;;;;;;;4.80;3.20;;;;;;;9.64;100.00;100937.03;10378522;28;20057;-67
2022/12/20 08:27:50;;;;;;;6.18;3.85;;;;;;;9.69;100.00;100921.06;10376532;28;20034;-66
2022/12/20 08:32:50;;;;;;;7.68;3.08;;;;;;;9.67;100.00;100937.50;10376442;28;20038;-67
2022/12/20 08:37:51;;;;;;;7.28;4.15;;;;;;;9.73;100.00;100939.44;10376712;28;20062;-67
2022/12/20 08:42:52;;;;;;;9.30;3.92;;;;;;;9.66;100.00;100941.19;10377525;28;20471;-68
2022/12/20 08:47:52;;;;;;;8.80;3.42;;;;;;;9.68;100.00;100936.44;10390807;28;20062;-67
2022/12/20 08:52:53;;;;;;;9.70;4.15;;;;;;;9.72;100.00;100935.03;10375515;28;20046;-67
2022/12/20 08:57:53;;;;;;;4.50;3.33;;;;;;;9.63;100.00;100946.16;10375587;28;20062;-67
2022/12/20 09:02:54;;;;;;;4.63;3.38;;;;;;;9.72;100.00;100942.31;10376105;28;20104;-66
2022/12/20 09:07:54;;;;;;;4.43;4.03;;;;;;;9.70;100.00;100960.59;10391988;28;20125;-67
2022/12/20 09:12:55;;;;;;;2.65;2.45;;;;;;;9.67;100.00;100950.19;10374118;28;20037;-67
2022/12/20 09:17:55;;;;;;;7.50;3.72;;;;;;;9.67;100.00;100945.59;10374549;28;20445;-68
2022/12/20 09:22:57;;;;;;;6.13;3.83;;;;;;;9.65;100.00;100942.25;10377284;28;20045;-68
2022/12/20 09:27:58;;;;;;;5.78;3.42;;;;;;;9.71;100.00;100955.00;10375262;28;20030;-67
2022/12/20 09:32:58;;;;;;;6.05;3.05;;;;;;;9.69;100.00;100945.41;10373294;28;20034;-67
2022/12/20 09:37:59;;;;;;;3.78;3.25;;;;;;;9.62;100.00;100948.03;10374574;28;20113;-67
2022/12/20 09:42:59;;;;;;;3.60;3.30;;;;;;;9.72;100.00;100935.03;10374781;28;20060;-66
2022/12/20 09:48:00;;;;;;;5.28;4.15;;;;;;;9.63;100.00;100941.59;10373387;28;20034;-68
2022/12/20 09:53:12;;;;;;;7.32;3.30;;;;;;;9.65;100.00;100944.09;10374412;28;20092;-67
2022/12/20 09:58:44;;;;;;;5.53;4.07;;;;;;;9.58;100.00;100940.50;10374386;28;20124;-66
2022/12/20 10:03:44;;;;;;;5.35;3.85;;;;;;;9.54;100.00;100946.28;10342554;28;20350;-66
2022/12/20 10:08:55;;;;;;;7.72;4.10;;;;;;;9.60;100.00;100931.16;10371992;28;20034;-66
2022/12/20 10:14:07;;;;;;;4.22;3.75;;;;;;;9.60;100.00;100920.34;10373419;28;20034;-67
2022/12/20 10:19:17;;;;;;;6.22;4.20;;;;;;;9.63;100.00;100925.34;10388327;28;20113;-68
2022/12/20 10:24:19;;;;;;;8.55;3.13;;;;;;;9.64;100.00;100927.06;10373413;28;20169;-67
2022/12/20 10:29:20;;;;;;;6.03;3.58;;;;;;;9.66;100.00;100943.06;10387696;28;20467;-67
2022/12/20 10:34:21;;;;;;;2.90;2.70;;;;;;;9.65;100.00;100936.84;10373022;28;20026;-67
2022/12/20 10:39:38;;;;;;;6.45;3.45;;;;;;;9.67;100.00;100937.50;10374283;28;20505;-68
2022/12/20 10:44:39;;;;;;;7.53;4.25;;;;;;;9.65;100.00;100949.53;10371505;28;20041;-69
2022/12/20 10:49:39;;;;;;;6.88;3.58;;;;;;;9.74;100.00;100932.16;10372540;28;20046;-68
2022/12/20 10:54:41;;;;;;;4.47;3.47;;;;;;;9.72;100.00;100934.19;10373321;28;20092;-69
2022/12/20 10:59:44;;;;;;;4.05;3.17;;;;;;;9.78;100.00;100928.03;10374647;28;20033;-68
2022/12/20 11:04:44;;;;;;;5.22;4.15;;;;;;;9.83;100.00;100925.59;10380255;28;20082;-69
2022/12/20 11:09:51;;;;;;;9.90;2.70;;;;;;;9.81;100.00;100926.81;10378479;28;20045;-69
2022/12/20 11:15:07;;;;;;;5.65;4.80;;;;;;;9.78;100.00;100918.03;10395198;28;20038;-70
2022/12/20 11:20:25;;;;;;;9.63;4.88;;;;;;;9.80;100.00;100923.28;10394465;28;20440;-69
2022/12/20 11:25:31;;;;;;;11.13;4.63;;;;;;;9.94;100.00;100929.66;10394938;28;20056;-69
2022/12/20 11:30:42;;;;;;;7.80;4.65;;;;;;;9.89;100.00;100924.84;10379915;28;20109;-69
2022/12/20 11:36:05;;;;;;;5.90;5.30;;;;;;;9.85;100.00;100901.03;10379015;28;20091;-71
2022/12/20 11:41:15;;;;;;;9.60;4.82;;;;;;;9.89;100.00;100921.25;10379584;28;20073;-69
2022/12/20 11:46:53;;;;;;;10.85;6.10;;;;;;;9.95;100.00;100910.50;10377524;28;20034;-70
2022/12/20 11:51:58;;;;;;;;;;;;;;;9.90;100.00;100917.56;10378911;28;20076;-69
2022/12/20 11:57:03;;;;;;;11.52;6.32;;;;;;;9.92;100.00;100913.63;10393970;28;19920;-68
2022/12/20 12:02:15;;;;;;;8.00;5.85;;;;;;;9.99;100.00;100908.28;10378868;28;20026;-69
2022/12/20 12:07:23;;;;;;;5.75;4.78;;;;;;;9.96;100.00;100906.78;10375799;28;20101;-69
2022/12/20 12:12:31;;;;;;;11.52;5.80;;;;;;;9.93;100.00;100915.28;10376044;28;20029;-69
2022/12/20 12:17:45;;;;;;;15.20;5.88;;;;;;;10.01;100.00;100895.38;10361565;28;20125;-69
2022/12/20 12:22:45;;;;;;;6.85;5.47;;;;;;;9.98;100.00;100899.31;10375340;28;20136;-70
2022/12/20 12:27:46;;;;;;;5.30;4.88;;;;;;;9.98;100.00;100903.88;10391473;28;20125;-69
2022/12/20 12:32:54;;;;;;;11.90;7.45;;;;;;;10.00;100.00;100894.53;10375650;28;20038;-69
2022/12/20 12:38:13;;;;;;;18.67;6.75;;;;;;;10.00;100.00;100909.94;10376833;28;20033;-69
2022/12/20 12:43:22;;;;;;;8.15;7.35;;;;;;;10.04;100.00;100908.53;10376831;28;20050;-69
2022/12/20 12:48:30;;;;;;;7.22;6.55;;;;;;;10.06;100.00;100902.94;10375796;28;20034;-69
2022/12/20 12:53:41;;;;;;;17.00;7.97;;;;;;;10.05;100.00;100906.66;10391382;28;20528;-69
2022/12/20 12:58:42;;;;;;;13.13;7.78;;;;;;;10.01;100.00;100906.19;10391426;28;20041;-71
2022/12/20 13:03:51;;;;;;;9.77;6.53;;;;;;;10.03;100.00;100901.44;10358167;28;20022;-70
2022/12/20 13:09:13;;;;;;;8.27;6.95;;;;;;;10.08;100.00;100917.09;10375238;28;20438;-69
2022/12/20 13:14:16;;;;;;;9.27;7.32;;;;;;;10.04;100.00;100910.41;10374878;28;20066;-69
2022/12/20 13:19:33;;;;;;;8.15;7.22;;;;;;;10.02;100.00;100902.47;10374968;28;20080;-69
2022/12/20 13:24:47;;;;;;;9.70;7.60;;;;;;;10.06;100.00;100903.75;10373630;28;20038;-69
2022/12/20 13:30:11;;;;;;;19.27;7.90;;;;;;;9.97;100.00;100905.75;10374638;28;20033;-69
2022/12/20 13:35:23;;;;;;;12.48;7.65;;;;;;;9.99;100.00;100898.28;10365618;28;20129;-69
2022/12/20 13:40:42;;;;;;;11.57;8.25;;;;;;;9.94;100.00;100900.72;10375082;28;20053;-70
2022/12/20 13:45:44;;;;;;;13.05;10.10;;;;;;;9.88;100.00;100896.09;10391649;28;20068;-69
2022/12/20 13:50:49;;;;;;;10.73;8.18;;;;;;;9.87;100.00;100883.59;10376678;28;20061;-69
2022/12/20 13:55:50;;;;;;;11.43;10.10;;;;;;;9.97;100.00;100888.69;10391929;28;20037;-69
2022/12/20 14:00:50;;;;;;;13.60;11.57;;;;;;;9.95;100.00;100899.69;10376562;28;20037;-68
2022/12/20 14:06:01;;;;;;;10.75;9.63;;;;;;;9.88;100.00;100898.78;10372618;28;20443;-68
2022/12/20 14:11:15;;;;;;;11.05;9.88;;;;;;;9.94;100.00;100903.44;10372286;28;20034;-69
2022/12/20 14:16:16;;;;;;;15.65;11.63;;;;;;;9.94;100.00;100900.72;10373655;28;20347;-69
2022/12/20 14:21:17;;;;;;;11.75;8.75;;;;;;;9.98;100.00;100891.19;10389515;28;20117;-68
2022/12/20 14:26:22;;;;;;;19.38;11.30;;;;;;;9.93;100.00;100911.75;10387957;28;20034;-69
2022/12/20 14:31:31;;;;;;;15.35;11.55;;;;;;;9.91;100.00;100914.63;10356301;28;20034;-68
2022/12/20 14:36:33;;;;;;;14.35;11.98;;;;;;;10.00;100.00;100899.97;10377918;28;20026;-68
2022/12/20 14:41:38;;;;;;;17.17;12.18;;;;;;;10.00;100.00;100883.72;10395802;28;20073;-68
2022/12/20 14:46:39;;;;;;;12.90;11.57;;;;;;;9.95;100.00;100883.44;10396433;28;20421;-69
2022/12/20 14:51:39;;;;;;;16.27;10.90;;;;;;;9.87;100.00;100883.59;10381625;28;20091;-68
2022/12/20 14:56:44;;;;;;;18.40;11.75;;;;;;;9.89;100.00;100889.66;10379955;28;20080;-68
2022/12/20 15:01:45;;;;;;;17.25;12.70;;;;;;;9.91;100.00;100903.00;10379544;28;20026;-68
2022/12/20 15:06:47;;;;;;;15.32;13.93;;;;;;;9.96;100.00;100898.69;10346623;28;20034;-69
2022/12/20 15:11:47;;;;;;;13.60;12.32;;;;;;;9.86;100.00;100889.19;10379092;28;20049;-68
2022/12/20 15:16:48;;;;;;;15.75;12.88;;;;;;;9.88;100.00;100896.09;10381667;28;20466;-69
2022/12/20 15:21:50;;;;;;;12.93;11.43;;;;;;;9.85;100.00;100892.94;10365373;28;20390;-68
2022/12/20 15:26:50;;;;;;;18.42;12.50;;;;;;;9.79;100.00;100889.13;10394964;28;20037;-68
2022/12/20 15:32:02;;;;;;;17.38;14.07;;;;;;;9.84;100.00;100893.97;10379345;28;20034;-67
2022/12/20 15:37:03;;;;;;;14.90;12.23;;;;;;;9.86;100.00;100903.59;10363983;28;20030;-67
2022/12/20 15:42:05;;;;;;;16.00;13.80;;;;;;;9.81;100.00;100902.47;10380023;28;20054;-68
2022/12/20 15:47:13;;;;;;;12.88;11.57;;;;;;;9.80;100.00;100896.22;10378772;28;20092;-68
2022/12/20 15:52:21;;;;;;;15.63;12.95;;;;;;;9.78;100.00;100909.94;10346351;28;20033;-68
2022/12/20 15:57:22;;;;;;;13.68;11.50;;;;;;;9.78;100.00;100903.69;10361557;28;20036;-68
2022/12/20 16:02:24;;;;;;;11.88;10.35;;;;;;;9.81;100.00;100919.53;10378165;28;20037;-67
2022/12/20 16:07:24;;;;;;;14.38;12.13;;;;;;;9.77;100.00;100905.56;10360651;28;20055;-67
2022/12/20 16:12:27;;;;;;;13.63;10.75;;;;;;;9.77;100.00;100897.44;10379701;28;20044;-67
2022/12/20 16:17:27;;;;;;;14.05;12.25;;;;;;;9.73;100.00;100889.91;10344260;28;20068;-67
2022/12/20 16:22:28;;;;;;;19.42;14.73;;;;;;;9.72;100.00;100890.94;10377490;28;20065;-68
2022/12/20 16:27:28;;;;;;;17.48;15.57;;;;;;;9.78;100.00;100892.88;10377650;28;20038;-67
2022/12/20 16:32:28;;;;;;;19.13;15.80;;;;;;;9.75;100.00;100915.72;10378227;28;20045;-67
2022/12/20 16:37:29;;;;;;;24.20;16.95;;;;;;;9.70;100.00;100914.63;10375940;28;20026;-67
2022/12/20 16:42:29;;;;;;;19.13;15.80;;;;;;;9.67;100.00;100918.56;10377614;28;20050;-67
2022/12/20 16:47:30;;;;;;;22.20;18.85;;;;;;;9.60;100.00;100914.09;10375597;28;20022;-67
2022/12/20 16:52:30;;;;;;;19.40;16.75;;;;;;;9.63;100.00;100925.34;10378006;28;20505;-67
2022/12/20 16:57:31;;;;;;;14.93;13.48;;;;;;;9.63;100.00;100917.25;10374421;28;20069;-66
2022/12/20 17:02:32;;;;;;;19.30;16.92;;;;;;;9.53;100.00;100922.97;10358729;28;20075;-67
2022/12/20 17:07:32;;;;;;;18.90;16.90;;;;;;;9.60;100.00;100927.59;10375339;28;20121;-68
2022/12/20 17:12:33;;;;;;;18.27;14.85;;;;;;;9.63;100.00;100940.75;10375770;28;20497;-67
2022/12/20 17:17:33;;;;;;;21.10;17.67;;;;;;;9.66;100.00;100935.78;10376336;28;20140;-67
2022/12/20 17:22:34;;;;;;;22.20;17.10;;;;;;;9.64;100.00;100934.34;10376273;28;20038;-67
2022/12/20 17:27:34;;;;;;;21.58;18.45;;;;;;;9.66;100.00;100938.50;10376357;28;20080;-68
2022/12/20 17:32:35;;;;;;;20.05;17.60;;;;;;;9.65;100.00;100941.41;10375781;28;20044;-67
2022/12/20 17:37:35;;;;;;;20.98;17.65;;;;;;;9.65;100.00;100938.69;10373946;28;20061;-68
2022/12/20 17:42:35;;;;;;;25.85;18.60;;;;;;;9.65;100.00;100925.19;10373715;28;20072;-68
2022/12/20 17:47:36;;;;;;;21.38;18.95;;;;;;;9.64;100.00;100953.25;10374975;28;20124;-68
2022/12/20 17:52:36;;;;;;;21.45;18.92;;;;;;;9.62;100.00;100960.72;10374724;28;20072;-68
2022/12/20 17:57:37;;;;;;;23.92;18.77;;;;;;;9.63;100.00;100956.97;10375158;28;20030;-69
2022/12/20 18:02:37;;;;;;;24.55;19.15;;;;;;;9.65;100.00;100957.63;10374427;28;20121;-68
2022/12/20 18:07:38;;;;;;;24.05;19.42;;;;;;;9.60;100.00;100947.38;10375067;28;20026;-70
2022/12/20 18:12:39;;;;;;;33.30;19.08;;;;;;;9.64;100.00;100959.50;10382862;28;20058;-68
2022/12/20 18:17:39;;;;;;;33.85;20.08;;;;;;;9.63;100.00;100954.25;10382628;28;20034;-67
2022/12/20 18:22:39;;;;;;;27.63;18.83;;;;;;;9.62;100.00;100956.13;10381485;28;20057;-68
2022/12/20 18:27:40;;;;;;;25.58;20.23;;;;;;;9.64;100.00;100955.97;10383438;28;20033;-68
2022/12/20 18:32:41;;;;;;;31.90;19.70;;;;;;;9.63;100.00;100951.56;10365331;28;20145;-69
2022/12/20 18:37:41;;;;;;;33.80;20.00;;;;;;;9.65;100.00;100954.94;10381912;28;20379;-67
2022/12/20 18:42:42;;;;;;;27.42;21.65;;;;;;;9.64;100.00;100953.25;10382356;28;20053;-68
2022/12/20 18:47:42;;;;;;;35.58;20.98;;;;;;;9.69;100.00;100953.50;10363432;28;20033;-68
2022/12/20 18:52:43;;;;;;;25.00;17.73;;;;;;;9.67;100.00;100955.59;10381413;28;20092;-68
2022/12/20 18:57:43;;;;;;;23.05;17.35;;;;;;;9.67;100.00;100947.47;10380048;28;20034;-68
2022/12/20 19:02:43;;;;;;;23.75;18.88;;;;;;;9.65;100.00;100960.34;10397418;28;20037;-68
2022/12/20 19:07:44;;;;;;;25.70;18.27;;;;;;;9.67;100.00;100969.94;10380328;28;20038;-68
2022/12/20 19:12:44;;;;;;;23.52;18.63;;;;;;;9.65;100.00;100963.88;10380773;28;20045;-68
2022/12/20 19:17:45;;;;;;;24.77;19.17;;;;;;;9.61;100.00;100969.88;10395220;28;20030;-68
2022/12/20 19:22:46;;;;;;;34.22;21.25;;;;;;;9.58;100.00;100962.97;10379706;28;20108;-68
2022/12/20 19:27:46;;;;;;;25.88;19.35;;;;;;;9.50;100.00;100968.47;10381778;28;20037;-67
2022/12/20 19:32:47;;;;;;;29.15;18.58;;;;;;;9.41;100.00;100970.44;10380672;28;20379;-68
2022/12/20 19:37:47;;;;;;;29.17;19.50;;;;;;;9.36;100.00;100962.06;10379584;28;20034;-68
2022/12/20 19:42:48;;;;;;;32.88;21.30;;;;;;;9.31;100.00;100984.22;10380751;28;20050;-69
2022/12/20 19:47:52;;;;;;;27.52;19.42;;;;;;;9.25;100.00;101003.06;10379667;28;20069;-68
2022/12/20 19:52:52;;;;;;;30.88;18.48;;;;;;;9.21;100.00;101001.75;10380961;28;20095;-68
2022/12/20 19:57:53;;;;;;;30.30;20.45;;;;;;;9.16;100.00;101004.19;10381296;28;20037;-68
2022/12/20 20:02:53;;;;;;;42.38;20.27;;;;;;;9.10;100.00;101004.94;10394011;28;20030;-68
2022/12/20 20:07:54;;;;;;;25.77;17.42;;;;;;;9.06;100.00;100994.50;10404793;28;20048;-68
2022/12/20 20:12:54;;;;;;;27.90;17.52;;;;;;;9.05;100.00;101008.16;10409922;28;20041;-68
2022/12/20 20:17:55;;;;;;;37.22;19.17;;;;;;;9.02;100.00;101003.13;10413329;28;20045;-68
2022/12/20 20:22:55;;;;;;;33.80;20.52;;;;;;;9.02;100.00;101009.38;10384407;28;20034;-68
2022/12/20 20:27:55;;;;;;;28.25;17.77;;;;;;;8.99;100.00;101031.34;10397329;28;20034;-68
2022/12/20 20:32:56;;;;;;;23.77;16.08;;;;;;;8.93;100.00;101031.25;10391954;28;20330;-68
2022/12/20 20:37:56;;;;;;;26.10;16.90;;;;;;;8.93;100.00;101023.97;10378312;28;20037;-67
2022/12/20 20:42:58;;;;;;;30.35;15.27;;;;;;;8.90;100.00;101029.75;10378073;28;20054;-67
2022/12/20 20:47:58;;;;;;;19.65;14.60;;;;;;;8.85;100.00;101030.31;10377668;28;20034;-67
2022/12/20 20:52:58;;;;;;;22.75;15.55;;;;;;;8.81;100.00;101028.16;10376912;28;20373;-67
2022/12/20 20:57:59;;;;;;;15.98;14.20;;;;;;;8.79;100.00;101020.25;10375436;28;20026;-67
2022/12/20 21:02:59;;;;;;;21.27;14.05;;;;;;;8.73;100.00;101031.75;10376092;28;20033;-67
2022/12/20 21:08:00;;;;;;;32.08;13.05;;;;;;;8.73;100.00;101025.53;10375321;28;20112;-68
2022/12/20 21:13:01;;;;;;;20.55;13.40;;;;;;;8.74;100.00;101024.50;10358577;28;20361;-68
2022/12/20 21:18:01;;;;;;;25.30;12.07;;;;;;;8.71;100.00;101032.97;10391151;28;20373;-68
2022/12/20 21:23:02;;;;;;;20.67;11.52;;;;;;;8.66;100.00;101036.22;10375982;28;20038;-67
2022/12/20 21:28:02;;;;;;;21.90;11.20;;;;;;;8.60;100.00;101026.97;10376170;28;20122;-69
2022/12/20 21:33:03;;;;;;;31.08;11.35;;;;;;;8.41;100.00;101024.78;10377533;28;20194;-69
2022/12/20 21:38:03;;;;;;;20.77;8.30;;;;;;;8.34;100.00;101023.78;10376193;28;20034;-68
2022/12/20 21:43:04;;;;;;;11.60;8.13;;;;;;;8.22;100.00;101028.75;10376933;28;20042;-67
2022/12/20 21:48:04;;;;;;;20.70;9.00;;;;;;;8.18;100.00;101032.84;10374687;28;20556;-68
2022/12/20 21:53:05;;;;;;;11.30;9.15;;;;;;;8.12;100.00;101039.78;10375131;28;20061;-69
2022/12/20 21:58:05;;;;;;;24.30;10.77;;;;;;;8.06;100.00;101040.50;10374356;28;20030;-67
2022/12/20 22:03:05;;;;;;;17.95;10.63;;;;;;;8.04;100.00;101044.38;10373054;28;20029;-67
2022/12/20 22:08:06;;;;;;;23.20;9.85;;;;;;;8.00;100.00;101043.88;10375383;28;20041;-68
2022/12/20 22:13:06;;;;;;;13.68;7.60;;;;;;;7.95;100.00;101046.28;10373437;28;20033;-68
2022/12/20 22:18:07;;;;;;;23.23;8.93;;;;;;;7.89;100.00;101052.38;10373327;28;20058;-67
2022/12/20 22:23:07;;;;;;;19.02;7.95;;;;;;;7.87;100.00;101055.25;10389730;28;20037;-67
2022/12/20 22:28:08;;;;;;;22.75;9.35;;;;;;;7.81;100.00;101057.81;10374940;28;20037;-67
2022/12/20 22:33:08;;;;;;;9.82;8.82;;;;;;;7.75;100.00;101056.66;10389054;28;20026;-67
2022/12/20 22:38:09;;;;;;;19.58;8.50;;;;;;;7.72;100.00;101048.06;10374682;28;20029;-67
2022/12/20 22:43:09;;;;;;;14.23;8.82;;;;;;;7.71;100.00;101049.09;10373368;28;20057;-67
2022/12/20 22:48:10;;;;;;;14.65;10.82;;;;;;;7.69;100.00;101060.06;10374104;28;20054;-69
2022/12/20 22:53:11;;;;;;;21.08;9.55;;;;;;;7.74;100.00;101051.44;10372886;28;20369;-69
2022/12/20 22:58:11;;;;;;;11.85;8.52;;;;;;;7.74;100.00;101041.50;10379823;28;20032;-68
2022/12/20 23:03:12;;;;;;;22.20;9.02;;;;;;;7.77;100.00;101051.94;10382638;28;20369;-68